CYPL

Details ICAO CYPL (YPL)
Name PICKLE LAKE
Region Canada
Timezone America/Toronto (UTC-5.0)
Plans Departing 0
Arriving 3
Stats Elevation 1,267 ft / 386 m (AMSL)
Location 51.446485° -90.214131°
Runways 1
Magnetic Variation 3.675° W
Sunrise 2017-12-17 14:02:56 UTC / 2017-12-17 09:02:56 Local
Sunset 2017-12-17 21:54:00 UTC / 2017-12-17 16:54:00 Local
Advertisement - Login to hide

Runways

ID Width Length Bearing (true) Bearing (mag) Surface Threshold Offset Overrun Length
09 100 ft / 30 m 4,907 ft / 1,496 m 90.24° 93.92° Asphalt 0 ft / 0 m 0 ft / 0 m
27 100 ft / 30 m 4,907 ft / 1,496 m 270.26° 273.94° Asphalt 0 ft / 0 m 0 ft / 0 m

Map

Weather


0- 5 10 15 20 25 30 35+ Temperature / ° C

Clouds and Precipitation
Forecast for 2017-12-18 06:00 UTC. Updated 5 minutes ago

Ground ~20,000 ft ~40,000 ft Winds

METAR

CYPL 180100Z 24010KT 6SM -SN OVC006 M05/M06 A2970 RMK SF8 SLP086

TAF

TAF CYPL 171938Z 1720/1802 23008G18KT 3SM -SN BR OVC006 TEMPO 1720/1802 6SM -SN SCT006 OVC010 RMK NXT FCST WILL BE ISSUED AT 181245Z
Warning: Do not use this data for real-world aviation or navigation. No guarantee of current accuracy is given.